createdAt,value
2023-02-18T00:01:09.915Z,5.47
2023-02-18T00:03:36.463Z,4.40
2023-02-18T00:06:14.318Z,4.50
2023-02-18T00:08:41.818Z,7.28
2023-02-18T00:11:08.897Z,5.43
2023-02-18T00:13:36.297Z,5.25
2023-02-18T00:16:06.319Z,5.18
2023-02-18T00:18:33.420Z,5.45
2023-02-18T00:20:59.955Z,5.63
2023-02-18T00:23:26.832Z,4.63
2023-02-18T00:26:23.044Z,4.93
2023-02-18T00:28:50.190Z,5.05
2023-02-18T00:31:20.124Z,4.45
2023-02-18T00:33:46.719Z,4.93
2023-02-18T00:36:16.478Z,4.10
2023-02-18T00:38:50.803Z,4.72
2023-02-18T00:41:17.995Z,5.00
2023-02-18T00:43:44.498Z,4.47
2023-02-18T00:46:11.611Z,4.57
2023-02-18T00:48:38.548Z,4.05
2023-02-18T00:51:06.666Z,3.58
2023-02-18T00:53:33.771Z,3.78
2023-02-18T00:56:00.938Z,3.88
2023-02-18T00:58:28.091Z,4.00
2023-02-18T01:00:55.270Z,3.50
2023-02-18T01:03:22.421Z,3.22
2023-02-18T01:05:49.834Z,2.90
2023-02-18T01:08:18.403Z,2.78
2023-02-18T01:10:46.993Z,2.22
2023-02-18T01:13:14.579Z,2.08
2023-02-18T01:15:42.337Z,1.83
2023-02-18T01:18:10.982Z,1.48
2023-02-18T01:20:38.977Z,1.88
2023-02-18T01:23:07.486Z,2.65
2023-02-18T01:25:34.757Z,1.95
2023-02-18T01:28:02.138Z,4.53
2023-02-18T01:30:28.797Z,1.02
2023-02-18T01:32:56.778Z,2.08
2023-02-18T01:35:23.636Z,2.40
2023-02-18T01:37:50.739Z,2.75
2023-02-18T01:40:20.637Z,1.67
2023-02-18T01:42:48.153Z,2.08
2023-02-18T01:45:33.119Z,2.08
2023-02-18T01:48:32.106Z,2.40
2023-02-18T01:51:15.379Z,1.98
2023-02-18T01:54:23.035Z,2.33
2023-02-18T01:57:04.791Z,2.38
2023-02-18T01:59:38.755Z,1.13
2023-02-18T02:02:08.589Z,2.28
2023-02-18T02:04:35.329Z,4.22
2023-02-18T02:07:02.738Z,2.33
2023-02-18T02:12:17.819Z,1.40
2023-02-18T02:15:22.539Z,2.20
2023-02-18T02:18:23.144Z,1.65
2023-02-18T02:21:31.613Z,2.00
2023-02-18T02:24:17.076Z,3.08
2023-02-18T02:26:46.577Z,2.60
2023-02-18T02:29:41.392Z,3.45
2023-02-18T02:32:26.773Z,2.50
2023-02-18T02:35:33.726Z,5.10
2023-02-18T02:38:18.298Z,4.28
2023-02-18T02:40:56.049Z,2.90
2023-02-18T02:44:09.296Z,3.75
2023-02-18T02:46:43.752Z,6.35
2023-02-18T02:49:33.786Z,6.35
2023-02-18T02:52:11.412Z,4.22
2023-02-18T02:54:38.006Z,4.95
2023-02-18T02:57:28.958Z,8.40
2023-02-18T03:00:09.522Z,6.25
2023-02-18T03:02:54.529Z,4.50
2023-02-18T03:06:01.521Z,3.92
2023-02-18T03:08:43.801Z,7.13
2023-02-18T03:11:15.729Z,5.68
2023-02-18T03:13:51.368Z,5.65
2023-02-18T03:16:41.534Z,7.78
2023-02-18T03:19:21.594Z,5.75
2023-02-18T03:21:56.911Z,7.28
2023-02-18T03:24:26.414Z,4.63
2023-02-18T03:26:59.106Z,6.35
2023-02-18T03:29:27.636Z,6.18
2023-02-18T03:31:57.930Z,7.57
2023-02-18T03:34:33.957Z,9.00
2023-02-18T03:37:02.472Z,6.72
2023-02-18T03:39:32.393Z,10.02
2023-02-18T03:41:58.928Z,6.68
2023-02-18T03:44:26.257Z,6.60
2023-02-18T03:46:52.975Z,5.82
2023-02-18T03:49:19.641Z,9.43
2023-02-18T03:51:47.602Z,7.05
2023-02-18T03:54:14.109Z,8.82
2023-02-18T03:56:42.499Z,10.05
2023-02-18T03:59:09.596Z,10.30
2023-02-18T04:01:36.219Z,6.50
2023-02-18T04:04:03.119Z,12.43
2023-02-18T04:06:29.965Z,8.35
2023-02-18T04:08:56.589Z,9.40
2023-02-18T04:11:23.260Z,8.48
2023-02-18T04:13:49.751Z,8.65
2023-02-18T04:16:16.268Z,10.80
2023-02-18T04:18:42.799Z,7.38
2023-02-18T04:21:10.704Z,8.68
2023-02-18T04:23:37.199Z,10.65
2023-02-18T04:26:03.841Z,10.10
2023-02-18T04:28:30.528Z,11.98
2023-02-18T04:30:57.029Z,8.82
2023-02-18T04:33:23.573Z,9.80
2023-02-18T04:35:50.051Z,10.50
2023-02-18T04:38:16.506Z,7.35
2023-02-18T04:40:43.006Z,10.27
2023-02-18T04:43:09.494Z,10.00
2023-02-18T04:45:36.056Z,9.43
2023-02-18T04:48:02.563Z,8.98
2023-02-18T04:50:29.094Z,6.20
2023-02-18T04:52:55.579Z,12.30
2023-02-18T04:55:22.205Z,8.85
2023-02-18T04:57:48.813Z,6.50
2023-02-18T05:00:17.911Z,6.70
2023-02-18T05:02:45.394Z,7.32
2023-02-18T05:05:12.954Z,10.65
2023-02-18T05:07:39.620Z,10.55
2023-02-18T05:10:06.741Z,6.40
2023-02-18T05:12:33.213Z,14.68
2023-02-18T05:14:59.726Z,11.00
2023-02-18T05:17:26.225Z,7.20
2023-02-18T05:19:52.702Z,9.82
2023-02-18T05:22:19.160Z,9.60
2023-02-18T05:24:45.674Z,7.53
2023-02-18T05:27:12.167Z,6.85
2023-02-18T05:29:38.675Z,8.93
2023-02-18T05:32:05.579Z,8.63
2023-02-18T05:34:32.134Z,9.15
2023-02-18T05:36:58.647Z,5.63
2023-02-18T05:39:25.116Z,10.45
2023-02-18T05:41:51.606Z,10.98
2023-02-18T05:44:18.113Z,10.65
2023-02-18T05:46:44.649Z,8.15
2023-02-18T05:49:11.313Z,8.52
2023-02-18T05:51:37.846Z,6.63
2023-02-18T05:54:04.760Z,9.02
2023-02-18T05:56:31.254Z,7.53
2023-02-18T05:58:57.789Z,8.98
2023-02-18T06:01:24.302Z,7.70
2023-02-18T06:03:50.833Z,10.00
2023-02-18T06:06:17.396Z,6.40
2023-02-18T06:08:43.885Z,5.00
2023-02-18T06:11:10.356Z,8.52
2023-02-18T06:13:36.859Z,6.70
2023-02-18T06:16:03.483Z,7.22
2023-02-18T06:18:30.024Z,8.00
2023-02-18T06:20:56.531Z,6.47
2023-02-18T06:23:23.025Z,5.70
2023-02-18T06:25:49.924Z,4.65
2023-02-18T06:28:17.498Z,9.15
2023-02-18T06:30:45.343Z,10.88
2023-02-18T06:33:12.064Z,6.82
2023-02-18T06:35:38.998Z,7.68
2023-02-18T06:38:05.673Z,7.70
2023-02-18T06:40:32.165Z,6.53
2023-02-18T06:42:58.662Z,7.78
2023-02-18T06:45:25.158Z,6.82
2023-02-18T06:47:51.646Z,14.05
2023-02-18T06:50:18.238Z,9.38
2023-02-18T06:52:44.912Z,7.82
2023-02-18T06:55:11.426Z,4.00
2023-02-18T06:57:38.172Z,7.65
2023-02-18T07:00:05.937Z,9.68
2023-02-18T07:02:32.427Z,6.88
2023-02-18T07:04:58.969Z,7.15
2023-02-18T07:07:25.474Z,6.00
2023-02-18T07:09:51.928Z,7.93
2023-02-18T07:12:18.421Z,4.93
2023-02-18T07:14:44.895Z,8.93
2023-02-18T07:17:11.364Z,9.90
2023-02-18T07:19:37.898Z,8.45
2023-02-18T07:22:04.399Z,7.93
2023-02-18T07:24:30.897Z,6.47
2023-02-18T07:26:57.481Z,7.85
2023-02-18T07:29:23.937Z,8.95
2023-02-18T07:31:53.825Z,7.47
2023-02-18T07:34:39.052Z,8.40
2023-02-18T07:37:25.864Z,7.97
2023-02-18T07:40:14.519Z,9.05
2023-02-18T07:43:01.290Z,8.05
2023-02-18T07:45:49.368Z,6.97
2023-02-18T07:48:36.308Z,11.35
2023-02-18T07:51:23.254Z,7.82
2023-02-18T07:54:10.060Z,6.15
2023-02-18T07:56:56.888Z,9.40
2023-02-18T07:59:43.757Z,8.75
2023-02-18T08:02:30.584Z,10.13
2023-02-18T08:05:17.505Z,7.60
2023-02-18T08:08:04.719Z,4.30
2023-02-18T08:10:52.875Z,8.57
2023-02-18T08:13:39.681Z,8.57
2023-02-18T08:16:26.974Z,7.63
2023-02-18T08:19:13.825Z,7.57
2023-02-18T08:22:03.917Z,7.28
2023-02-18T08:24:50.705Z,9.30
2023-02-18T08:27:37.538Z,6.72
2023-02-18T08:30:24.714Z,6.15
2023-02-18T08:33:11.634Z,7.85
2023-02-18T08:35:58.445Z,7.22
2023-02-18T08:38:45.737Z,4.85
2023-02-18T08:41:32.554Z,7.28
2023-02-18T08:44:19.336Z,5.57
2023-02-18T08:46:45.843Z,6.28
2023-02-18T08:49:12.274Z,6.90
2023-02-18T08:51:38.824Z,6.68
2023-02-18T08:54:05.345Z,8.85
2023-02-18T08:56:31.809Z,5.00
2023-02-18T08:58:58.524Z,5.80
2023-02-18T09:01:25.055Z,8.43
2023-02-18T09:03:51.536Z,7.18
2023-02-18T09:06:39.829Z,7.55
2023-02-18T09:09:26.643Z,5.85
2023-02-18T09:12:13.494Z,10.80
2023-02-18T09:14:40.249Z,5.88
2023-02-18T09:17:06.794Z,5.15
2023-02-18T09:19:33.557Z,6.25
2023-02-18T09:22:00.822Z,11.10
2023-02-18T09:24:27.507Z,4.63
2023-02-18T09:26:53.966Z,6.05
2023-02-18T09:29:20.408Z,5.70
2023-02-18T09:31:47.080Z,7.10
2023-02-18T09:34:13.586Z,4.28
2023-02-18T09:36:40.079Z,5.18
2023-02-18T09:39:06.701Z,5.40
2023-02-18T09:41:45.262Z,6.20
2023-02-18T09:44:18.291Z,5.57
2023-02-18T09:47:02.127Z,6.15
2023-02-18T09:49:32.266Z,5.75
2023-02-18T09:52:06.011Z,3.90
2023-02-18T09:54:32.542Z,5.93
2023-02-18T09:56:59.718Z,6.38
2023-02-18T09:59:27.181Z,5.63
2023-02-18T10:01:54.665Z,5.50
2023-02-18T10:04:37.292Z,6.30
2023-02-18T10:07:04.001Z,9.73
2023-02-18T10:09:36.434Z,3.90
2023-02-18T10:12:14.857Z,5.78
2023-02-18T10:14:43.139Z,7.88
2023-02-18T10:17:16.478Z,5.95
2023-02-18T10:19:45.906Z,5.20
2023-02-18T10:22:15.143Z,5.40
2023-02-18T10:24:50.277Z,6.25
2023-02-18T10:27:24.266Z,7.30
2023-02-18T10:29:51.052Z,4.25
2023-02-18T10:32:27.532Z,5.00
2023-02-18T10:35:36.839Z,7.53
2023-02-18T10:38:12.543Z,6.35
2023-02-18T10:40:48.750Z,6.15
2023-02-18T10:43:41.254Z,4.13
2023-02-18T10:46:30.500Z,5.28
2023-02-18T10:49:14.754Z,4.45
2023-02-18T10:51:48.393Z,3.83
2023-02-18T10:54:15.227Z,3.05
2023-02-18T10:56:48.597Z,3.88
2023-02-18T10:59:33.526Z,6.65
2023-02-18T11:02:03.736Z,3.58
2023-02-18T11:04:42.580Z,3.90
2023-02-18T11:07:31.186Z,7.68
2023-02-18T11:10:00.688Z,4.57
2023-02-18T11:12:33.487Z,4.85
2023-02-18T11:15:22.493Z,5.78
2023-02-18T11:17:52.263Z,3.97
2023-02-18T11:20:21.573Z,4.28
2023-02-18T11:22:48.883Z,4.72
2023-02-18T11:25:24.326Z,4.35
2023-02-18T11:28:13.610Z,3.25
2023-02-18T11:30:43.425Z,7.75
2023-02-18T11:33:18.763Z,4.03
2023-02-18T11:35:53.861Z,3.78
2023-02-18T11:38:28.787Z,2.38
2023-02-18T11:41:00.024Z,3.63
2023-02-18T11:43:30.829Z,3.85
2023-02-18T11:46:14.960Z,4.05
2023-02-18T11:48:41.538Z,2.55
2023-02-18T11:51:35.118Z,2.88
2023-02-18T11:54:20.656Z,3.15
2023-02-18T11:56:57.004Z,2.30
2023-02-18T11:59:24.228Z,4.03
2023-02-18T12:01:54.946Z,3.72
2023-02-18T12:04:36.856Z,2.22
2023-02-18T12:07:15.244Z,2.63
2023-02-18T12:09:48.825Z,2.50
2023-02-18T12:12:31.917Z,3.00
2023-02-18T12:15:00.136Z,3.67
2023-02-18T12:17:26.700Z,2.20
2023-02-18T12:20:36.730Z,2.85
2023-02-18T12:23:34.378Z,2.90
2023-02-18T12:26:22.731Z,3.60
2023-02-18T12:29:34.635Z,3.17
2023-02-18T12:32:26.780Z,2.25
2023-02-18T12:35:11.259Z,3.40
2023-02-18T12:37:46.487Z,1.90
2023-02-18T12:40:18.617Z,1.27
2023-02-18T12:43:22.494Z,2.00
2023-02-18T12:45:51.994Z,1.58
2023-02-18T12:48:18.365Z,2.22
2023-02-18T12:51:30.082Z,0.77
2023-02-18T12:54:41.970Z,3.55
2023-02-18T12:57:31.778Z,1.35
2023-02-18T13:00:37.225Z,2.75
2023-02-18T13:03:54.779Z,2.00
2023-02-18T13:07:04.437Z,2.30
2023-02-18T13:09:58.900Z,2.47
2023-02-18T13:12:57.305Z,2.80
2023-02-18T13:15:49.824Z,1.30
2023-02-18T13:18:42.135Z,2.20
2023-02-18T13:21:31.057Z,3.45
2023-02-18T13:24:39.541Z,3.78
2023-02-18T13:27:48.197Z,2.80
2023-02-18T13:30:57.093Z,2.47
2023-02-18T13:33:53.973Z,7.07
2023-02-18T13:37:16.336Z,5.63
2023-02-18T13:40:04.322Z,2.47
2023-02-18T13:42:52.597Z,3.42
2023-02-18T13:45:39.737Z,1.98
2023-02-18T13:48:28.133Z,1.63
2023-02-18T13:51:27.147Z,2.65
2023-02-18T13:54:13.908Z,2.85
2023-02-18T13:57:15.381Z,2.63
2023-02-18T14:00:06.203Z,4.53
2023-02-18T14:03:02.464Z,5.77
2023-02-18T14:05:49.329Z,3.17
2023-02-18T14:08:39.354Z,3.42
2023-02-18T14:11:37.941Z,4.40
2023-02-18T14:14:27.559Z,3.72
2023-02-18T14:17:20.412Z,4.85
2023-02-18T14:20:07.159Z,5.47
2023-02-18T14:22:53.976Z,5.13
2023-02-18T14:25:41.851Z,4.90
2023-02-18T14:28:34.771Z,4.35
2023-02-18T14:31:26.176Z,5.63
2023-02-18T14:34:54.262Z,4.78
2023-02-18T14:38:16.876Z,4.93
2023-02-18T14:41:19.298Z,7.47
2023-02-18T14:44:24.183Z,5.43
2023-02-18T14:47:14.090Z,6.82
2023-02-18T14:50:04.930Z,6.70
2023-02-18T14:52:57.498Z,6.35
2023-02-18T14:55:48.686Z,7.22
2023-02-18T14:58:43.307Z,6.20
2023-02-18T15:01:33.504Z,31.58
2023-02-18T15:04:20.372Z,5.75
2023-02-18T15:07:09.881Z,7.68
2023-02-18T15:09:56.696Z,5.78
2023-02-18T15:12:43.719Z,9.48
2023-02-18T15:15:34.171Z,6.07
2023-02-18T15:18:28.192Z,7.25
2023-02-18T15:21:22.592Z,9.95
2023-02-18T15:24:19.012Z,10.63
2023-02-18T15:27:13.914Z,10.43
2023-02-18T15:30:26.650Z,6.53
2023-02-18T15:33:14.030Z,12.13
2023-02-18T15:36:06.541Z,11.10
2023-02-18T15:38:53.980Z,8.40
2023-02-18T15:41:40.829Z,9.40
2023-02-18T15:44:30.051Z,10.73
2023-02-18T15:47:18.303Z,7.82
2023-02-18T15:50:06.480Z,8.30
2023-02-18T15:52:56.846Z,8.32
2023-02-18T15:55:47.450Z,7.97
2023-02-18T15:58:34.246Z,8.10
2023-02-18T16:01:29.414Z,6.63
2023-02-18T16:04:16.498Z,7.10
2023-02-18T16:07:21.984Z,9.25
2023-02-18T16:10:21.889Z,9.82
2023-02-18T16:13:14.197Z,9.07
2023-02-18T16:16:01.573Z,8.50
2023-02-18T16:18:48.461Z,6.63
2023-02-18T16:21:45.024Z,7.40
2023-02-18T16:24:38.791Z,6.35
2023-02-18T16:27:38.318Z,6.90
2023-02-18T16:30:30.747Z,4.93
2023-02-18T16:33:17.570Z,5.30
2023-02-18T16:36:04.670Z,6.38
2023-02-18T16:38:51.476Z,6.30
2023-02-18T16:41:38.294Z,7.57
2023-02-18T16:44:25.053Z,5.57
2023-02-18T16:47:16.305Z,4.60
2023-02-18T16:50:03.283Z,5.72
2023-02-18T16:52:29.811Z,4.25
2023-02-18T16:54:56.292Z,4.68
2023-02-18T16:57:22.745Z,5.30
2023-02-18T16:59:49.382Z,5.55
2023-02-18T17:02:20.689Z,4.65
2023-02-18T17:04:47.242Z,4.38
2023-02-18T17:07:13.733Z,4.47
2023-02-18T17:09:40.239Z,5.07
2023-02-18T17:12:06.777Z,4.18
2023-02-18T17:14:33.236Z,5.70
2023-02-18T17:16:59.896Z,5.38
2023-02-18T17:19:26.357Z,4.55
2023-02-18T17:21:52.792Z,4.70
2023-02-18T17:24:19.308Z,5.25
2023-02-18T17:26:45.874Z,6.05
2023-02-18T17:29:12.407Z,5.13
2023-02-18T17:31:41.587Z,4.95
2023-02-18T17:34:12.119Z,5.13
2023-02-18T17:36:38.645Z,3.30
2023-02-18T17:39:12.886Z,4.78
2023-02-18T17:41:39.386Z,4.13
2023-02-18T17:44:20.133Z,5.60
2023-02-18T17:46:47.300Z,7.05
2023-02-18T17:49:13.816Z,6.40
2023-02-18T17:51:40.368Z,5.10
2023-02-18T17:54:19.321Z,7.30
2023-02-18T17:56:46.528Z,5.57
2023-02-18T17:59:13.016Z,4.43
2023-02-18T18:01:39.861Z,5.72
2023-02-18T18:04:13.556Z,8.45
2023-02-18T18:06:40.130Z,6.03
2023-02-18T18:09:06.599Z,11.07
2023-02-18T18:11:33.132Z,6.35
2023-02-18T18:13:59.731Z,6.35
2023-02-18T18:16:26.730Z,6.10
2023-02-18T18:18:53.210Z,5.72
2023-02-18T18:21:32.557Z,7.57
2023-02-18T18:23:59.074Z,8.13
2023-02-18T18:26:26.217Z,8.27
2023-02-18T18:28:52.686Z,7.10
2023-02-18T18:31:19.984Z,7.35
2023-02-18T18:33:49.037Z,6.30
2023-02-18T18:36:16.433Z,7.55
2023-02-18T18:38:43.150Z,9.15
2023-02-18T18:41:18.147Z,6.93
2023-02-18T18:43:45.439Z,5.57
2023-02-18T18:46:12.220Z,10.48
2023-02-18T18:48:39.454Z,7.00
2023-02-18T18:51:06.037Z,8.40
2023-02-18T18:53:34.651Z,8.13
2023-02-18T18:56:03.870Z,7.47
2023-02-18T18:58:30.391Z,10.68
2023-02-18T19:01:02.455Z,5.75
2023-02-18T19:03:30.146Z,7.72
2023-02-18T19:05:57.136Z,7.70
2023-02-18T19:08:23.896Z,9.07
2023-02-18T19:10:53.277Z,11.48
2023-02-18T19:13:26.864Z,8.23
2023-02-18T19:16:22.347Z,10.23
2023-02-18T19:18:49.333Z,11.00
2023-02-18T19:22:52.765Z,10.15
2023-02-18T19:25:20.034Z,8.88
2023-02-18T19:27:47.760Z,7.28
2023-02-18T19:30:26.940Z,10.05
2023-02-18T19:32:58.735Z,11.55
2023-02-18T19:35:27.089Z,10.10
2023-02-18T19:37:54.378Z,9.63
2023-02-18T19:40:23.988Z,9.85
2023-02-18T19:42:50.636Z,11.10
2023-02-18T19:45:18.241Z,12.57
2023-02-18T19:47:45.078Z,11.35
2023-02-18T19:50:16.759Z,8.70
2023-02-18T19:52:43.368Z,11.30
2023-02-18T19:55:10.532Z,12.88
2023-02-18T19:57:37.317Z,11.52
2023-02-18T20:00:06.265Z,9.38
2023-02-18T20:02:39.675Z,10.93
2023-02-18T20:05:08.069Z,16.25
2023-02-18T20:07:35.171Z,11.45
2023-02-18T20:10:02.860Z,12.80
2023-02-18T20:12:29.387Z,13.48
2023-02-18T20:14:55.931Z,13.68
2023-02-18T20:17:22.430Z,11.00
2023-02-18T20:20:10.505Z,15.18
2023-02-18T20:22:37.056Z,15.15
2023-02-18T20:25:03.819Z,13.10
2023-02-18T20:27:30.420Z,17.90
2023-02-18T20:29:56.885Z,14.13
2023-02-18T20:32:23.501Z,14.27
2023-02-18T20:34:50.014Z,12.40
2023-02-18T20:37:16.553Z,17.35
2023-02-18T20:39:43.104Z,14.20
2023-02-18T20:42:16.198Z,11.50
2023-02-18T20:44:44.860Z,17.00
2023-02-18T20:47:12.199Z,16.80
2023-02-18T20:49:38.769Z,16.73
2023-02-18T20:52:05.246Z,14.35
2023-02-18T20:54:32.058Z,11.10
2023-02-18T20:56:58.694Z,17.30
2023-02-18T20:59:25.495Z,11.45
2023-02-18T21:01:52.355Z,13.38
2023-02-18T21:04:19.901Z,12.40
2023-02-18T21:06:47.281Z,12.57
2023-02-18T21:09:15.392Z,17.25
2023-02-18T21:11:42.853Z,21.13
2023-02-18T21:14:10.061Z,14.77
2023-02-18T21:16:36.720Z,19.58
2023-02-18T21:19:03.211Z,18.55
2023-02-18T21:21:29.750Z,19.17
2023-02-18T21:23:56.261Z,20.80
2023-02-18T21:26:27.197Z,12.55
2023-02-18T21:28:56.273Z,20.45
2023-02-18T21:31:34.964Z,14.32
2023-02-18T21:34:02.501Z,10.80
2023-02-18T21:36:30.593Z,19.90
2023-02-18T21:38:59.653Z,16.55
2023-02-18T21:41:27.219Z,16.83
2023-02-18T21:43:54.274Z,14.65
2023-02-18T21:46:26.702Z,23.77
2023-02-18T21:48:54.096Z,12.40
2023-02-18T21:51:20.597Z,17.23
2023-02-18T21:53:47.052Z,13.15
2023-02-18T21:56:13.695Z,12.23
2023-02-18T21:58:40.176Z,9.93
2023-02-18T22:01:06.741Z,18.73
2023-02-18T22:03:33.237Z,13.30
2023-02-18T22:05:59.731Z,24.65
2023-02-18T22:08:26.252Z,15.88
2023-02-18T22:10:52.728Z,16.20
2023-02-18T22:13:19.189Z,14.15
2023-02-18T22:15:54.442Z,12.88
2023-02-18T22:18:20.918Z,13.95
2023-02-18T22:20:47.375Z,18.50
2023-02-18T22:23:13.860Z,14.48
2023-02-18T22:25:40.359Z,14.30
2023-02-18T22:28:07.543Z,15.70
2023-02-18T22:30:34.200Z,16.08
2023-02-18T22:33:00.681Z,12.10
2023-02-18T22:35:27.491Z,12.10
2023-02-18T22:37:53.956Z,15.52
2023-02-18T22:40:20.424Z,11.73
2023-02-18T22:42:46.897Z,13.98
2023-02-18T22:45:13.390Z,14.18
2023-02-18T22:47:39.825Z,11.77
2023-02-18T22:50:06.801Z,14.35
2023-02-18T22:52:35.168Z,13.65
2023-02-18T22:55:01.696Z,19.15
2023-02-18T22:57:28.189Z,18.13
2023-02-18T22:59:54.681Z,19.25
2023-02-18T23:02:21.131Z,17.85
2023-02-18T23:04:47.607Z,15.85
2023-02-18T23:07:14.139Z,15.45
2023-02-18T23:09:40.835Z,12.52
2023-02-18T23:12:07.447Z,12.05
2023-02-18T23:14:33.929Z,17.17
2023-02-18T23:17:02.346Z,14.45
2023-02-18T23:19:31.189Z,13.75
2023-02-18T23:21:58.037Z,14.40
2023-02-18T23:24:24.921Z,13.80
2023-02-18T23:26:51.542Z,12.30
2023-02-18T23:29:18.158Z,11.65
2023-02-18T23:31:44.818Z,10.95
2023-02-18T23:34:14.476Z,15.48
2023-02-18T23:36:41.191Z,16.50
2023-02-18T23:39:10.401Z,15.55
2023-02-18T23:41:37.390Z,13.63
2023-02-18T23:44:06.009Z,11.73
2023-02-18T23:46:33.700Z,12.27
2023-02-18T23:49:01.034Z,15.07
2023-02-18T23:51:27.784Z,11.10
2023-02-18T23:53:54.243Z,12.00
2023-02-18T23:56:23.019Z,12.55
2023-02-18T23:58:53.134Z,11.27
